Terminal Aerodrome Forecast
Issued by NWS

Home | Current Version | Previous Version | Graphics & Text | Print | Product List | Glossary On
Versions: 1 2 3 4 5 6 7 8 9 10 11 12 13 14 15 16 17
000
FTUS43 KBIS 201128
TAFDIK
TAF
KDIK 201128Z 2012/2112 20007KT P6SM FEW250
     FM201800 18010KT P6SM FEW250
     FM202300 15007KT P6SM FEW250
     FM210100 21011KT P6SM FEW250
     FM210300 23014G19KT P6SM FEW250 WS020/25035KT
     FM210500 28027G35KT P6SM FEW120 SCT150 WS020/29050KT
     FM210900 29020G29KT P6SM SCT140 BKN200 WS020/29040KT=

USA.gov is the U.S. government's official web portal to all federal, state and local government web resources and services.